sensor_id;sensor_type;location;lat;lon;timestamp;pressure;altitude;pressure_sealevel;temperature;humidity
20909;BME280;10614;53.198;6.570;2023-03-03T00:01:22;102651.09;;;3.87;100.00
20909;BME280;10614;53.198;6.570;2023-03-03T00:03:25;102647.59;;;3.86;100.00
20909;BME280;10614;53.198;6.570;2023-03-03T00:05:27;102651.97;;;3.87;100.00
20909;BME280;10614;53.198;6.570;2023-03-03T00:07:29;102647.59;;;3.86;100.00
20909;BME280;10614;53.198;6.570;2023-03-03T00:09:32;102646.72;;;3.86;100.00
20909;BME280;10614;53.198;6.570;2023-03-03T00:11:34;102645.84;;;3.85;100.00
20909;BME280;10614;53.198;6.570;2023-03-03T00:13:42;102644.97;;;3.85;100.00
20909;BME280;10614;53.198;6.570;2023-03-03T00:15:45;102642.38;;;3.85;100.00
20909;BME280;10614;53.198;6.570;2023-03-03T00:17:47;102642.38;;;3.85;100.00
20909;BME280;10614;53.198;6.570;2023-03-03T00:19:50;102645.84;;;3.85;100.00
20909;BME280;10614;53.198;6.570;2023-03-03T00:21:52;102638.91;;;3.86;100.00
20909;BME280;10614;53.198;6.570;2023-03-03T00:24:10;102639.78;;;3.85;100.00
20909;BME280;10614;53.198;6.570;2023-03-03T00:26:21;102645.84;;;3.85;100.00
20909;BME280;10614;53.198;6.570;2023-03-03T00:28:26;102642.34;;;3.83;100.00
20909;BME280;10614;53.198;6.570;2023-03-03T00:30:28;102631.00;;;3.81;100.00
20909;BME280;10614;53.198;6.570;2023-03-03T00:32:36;102643.16;;;3.80;100.00
20909;BME280;10614;53.198;6.570;2023-03-03T00:34:39;102634.44;;;3.78;100.00
20909;BME280;10614;53.198;6.570;2023-03-03T00:36:42;102641.41;;;3.78;100.00
20909;BME280;10614;53.198;6.570;2023-03-03T00:38:46;102643.09;;;3.76;100.00
20909;BME280;10614;53.198;6.570;2023-03-03T00:40:48;102650.03;;;3.75;100.00
20909;BME280;10614;53.198;6.570;2023-03-03T00:42:54;102639.56;;;3.74;100.00
20909;BME280;10614;53.198;6.570;2023-03-03T00:44:56;102645.66;;;3.73;100.00
20909;BME280;10614;53.198;6.570;2023-03-03T00:47:02;102647.31;;;3.69;100.00
20909;BME280;10614;53.198;6.570;2023-03-03T00:49:21;102641.22;;;3.69;100.00
20909;BME280;10614;53.198;6.570;2023-03-03T00:51:27;102649.00;;;3.66;100.00
20909;BME280;10614;53.198;6.570;2023-03-03T00:53:30;102643.75;;;3.64;100.00
20909;BME280;10614;53.198;6.570;2023-03-03T00:55:33;102644.63;;;3.63;100.00
20909;BME280;10614;53.198;6.570;2023-03-03T00:57:34;102649.78;;;3.62;100.00
20909;BME280;10614;53.198;6.570;2023-03-03T00:59:37;102647.16;;;3.60;100.00
20909;BME280;10614;53.198;6.570;2023-03-03T01:01:38;102639.34;;;3.58;100.00
20909;BME280;10614;53.198;6.570;2023-03-03T01:03:41;102642.78;;;3.57;100.00
20909;BME280;10614;53.198;6.570;2023-03-03T01:05:42;102641.03;;;3.56;100.00
20909;BME280;10614;53.198;6.570;2023-03-03T01:07:44;102646.19;;;3.55;100.00
20909;BME280;10614;53.198;6.570;2023-03-03T01:09:46;102641.00;;;3.55;100.00
20909;BME280;10614;53.198;6.570;2023-03-03T01:11:48;102637.50;;;3.54;100.00
20909;BME280;10614;53.198;6.570;2023-03-03T01:13:51;102634.88;;;3.51;100.00
20909;BME280;10614;53.198;6.570;2023-03-03T01:15:54;102633.06;;;3.49;100.00
20909;BME280;10614;53.198;6.570;2023-03-03T01:17:56;102629.56;;;3.47;100.00
20909;BME280;10614;53.198;6.570;2023-03-03T01:19:58;102632.19;;;3.48;100.00
20909;BME280;10614;53.198;6.570;2023-03-03T01:22:00;102630.41;;;3.46;100.00
20909;BME280;10614;53.198;6.570;2023-03-03T01:24:02;102631.28;;;3.45;100.00
20909;BME280;10614;53.198;6.570;2023-03-03T01:26:04;102636.44;;;3.43;100.00
20909;BME280;10614;53.198;6.570;2023-03-03T01:28:06;102635.53;;;3.40;100.00
20909;BME280;10614;53.198;6.570;2023-03-03T01:30:09;102634.53;;;3.34;100.00
20909;BME280;10614;53.198;6.570;2023-03-03T01:32:12;102638.81;;;3.32;100.00
20909;BME280;10614;53.198;6.570;2023-03-03T01:34:14;102633.53;;;3.26;100.00
20909;BME280;10614;53.198;6.570;2023-03-03T01:36:22;102634.13;;;3.13;100.00
20909;BME280;10614;53.198;6.570;2023-03-03T01:38:24;102633.94;;;3.02;100.00
20909;BME280;10614;53.198;6.570;2023-03-03T01:40:27;102627.72;;;2.95;100.00
20909;BME280;10614;53.198;6.570;2023-03-03T01:42:30;102632.03;;;2.93;100.00
20909;BME280;10614;53.198;6.570;2023-03-03T01:44:32;102635.44;;;2.92;100.00
20909;BME280;10614;53.198;6.570;2023-03-03T01:46:53;102625.03;;;2.91;100.00
20909;BME280;10614;53.198;6.570;2023-03-03T01:48:58;102630.13;;;2.86;100.00
20909;BME280;10614;53.198;6.570;2023-03-03T01:51:05;102626.47;;;2.77;100.00
20909;BME280;10614;53.198;6.570;2023-03-03T01:53:13;102630.72;;;2.73;100.00
20909;BME280;10614;53.198;6.570;2023-03-03T01:55:18;102636.69;;;2.67;100.00
20909;BME280;10614;53.198;6.570;2023-03-03T01:57:25;102628.69;;;2.58;100.00
20909;BME280;10614;53.198;6.570;2023-03-03T01:59:30;102634.59;;;2.51;100.00
20909;BME280;10614;53.198;6.570;2023-03-03T02:01:34;102623.13;;;2.41;100.00
20909;BME280;10614;53.198;6.570;2023-03-03T02:03:36;102623.88;;;2.37;100.00
20909;BME280;10614;53.198;6.570;2023-03-03T02:05:40;102625.56;;;2.35;100.00
20909;BME280;10614;53.198;6.570;2023-03-03T02:07:44;102622.09;;;2.35;100.00
20909;BME280;10614;53.198;6.570;2023-03-03T02:09:51;102626.41;;;2.34;100.00
20909;BME280;10614;53.198;6.570;2023-03-03T02:11:58;102618.53;;;2.31;100.00
20909;BME280;10614;53.198;6.570;2023-03-03T02:14:02;102627.09;;;2.27;100.00
20909;BME280;10614;53.198;6.570;2023-03-03T02:16:04;102624.56;;;2.28;100.00
20909;BME280;10614;53.198;6.570;2023-03-03T02:18:09;102625.41;;;2.29;100.00
20909;BME280;10614;53.198;6.570;2023-03-03T02:20:14;102629.81;;;2.31;100.00
20909;BME280;10614;53.198;6.570;2023-03-03T02:22:25;102628.09;;;2.32;100.00
20909;BME280;10614;53.198;6.570;2023-03-03T02:24:30;102624.59;;;2.31;100.00
20909;BME280;10614;53.198;6.570;2023-03-03T02:26:38;102630.63;;;2.29;100.00
20909;BME280;10614;53.198;6.570;2023-03-03T02:28:42;102627.16;;;2.28;100.00
20909;BME280;10614;53.198;6.570;2023-03-03T02:30:44;102627.09;;;2.27;100.00
20909;BME280;10614;53.198;6.570;2023-03-03T02:32:45;102626.22;;;2.25;100.00
20909;BME280;10614;53.198;6.570;2023-03-03T02:34:49;102630.50;;;2.24;100.00
20909;BME280;10614;53.198;6.570;2023-03-03T02:36:51;102629.53;;;2.19;100.00
20909;BME280;10614;53.198;6.570;2023-03-03T02:38:58;102628.63;;;2.17;100.00
20909;BME280;10614;53.198;6.570;2023-03-03T02:41:07;102627.69;;;2.15;100.00
20909;BME280;10614;53.198;6.570;2023-03-03T02:43:12;102629.41;;;2.15;100.00
20909;BME280;10614;53.198;6.570;2023-03-03T02:45:17;102633.69;;;2.11;100.00
20909;BME280;10614;53.198;6.570;2023-03-03T02:47:19;102632.72;;;2.07;100.00
20909;BME280;10614;53.198;6.570;2023-03-03T02:49:22;102630.06;;;2.06;100.00
20909;BME280;10614;53.198;6.570;2023-03-03T02:51:24;102628.28;;;2.03;100.00
20909;BME280;10614;53.198;6.570;2023-03-03T02:53:26;102632.56;;;2.01;100.00
20909;BME280;10614;53.198;6.570;2023-03-03T02:55:28;102633.38;;;1.99;100.00
20909;BME280;10614;53.198;6.570;2023-03-03T02:57:29;102637.69;;;1.97;100.00
20909;BME280;10614;53.198;6.570;2023-03-03T02:59:32;102635.84;;;1.94;100.00
20909;BME280;10614;53.198;6.570;2023-03-03T03:01:35;102640.97;;;1.91;100.00
20909;BME280;10614;53.198;6.570;2023-03-03T03:03:37;102633.94;;;1.87;100.00
20909;BME280;10614;53.198;6.570;2023-03-03T03:05:39;102632.13;;;1.83;100.00
20909;BME280;10614;53.198;6.570;2023-03-03T03:07:41;102631.06;;;1.75;100.00
20909;BME280;10614;53.198;6.570;2023-03-03T03:09:42;102634.38;;;1.69;100.00
20909;BME280;10614;53.198;6.570;2023-03-03T03:11:44;102631.56;;;1.61;100.00
20909;BME280;10614;53.198;6.570;2023-03-03T03:13:46;102643.66;;;1.59;100.00
20909;BME280;10614;53.198;6.570;2023-03-03T03:15:49;102637.50;;;1.56;100.00
20909;BME280;10614;53.198;6.570;2023-03-03T03:17:51;102633.97;;;1.54;100.00
20909;BME280;10614;53.198;6.570;2023-03-03T03:19:53;102634.84;;;1.54;100.00
20909;BME280;10614;53.198;6.570;2023-03-03T03:21:54;102640.94;;;1.55;100.00
20909;BME280;10614;53.198;6.570;2023-03-03T03:23:56;102635.75;;;1.55;100.00
20909;BME280;10614;53.198;6.570;2023-03-03T03:25:58;102631.38;;;1.54;100.00
20909;BME280;10614;53.198;6.570;2023-03-03T03:28:01;102640.84;;;1.52;100.00
20909;BME280;10614;53.198;6.570;2023-03-03T03:30:03;102637.38;;;1.51;100.00
20909;BME280;10614;53.198;6.570;2023-03-03T03:32:06;102633.78;;;1.46;100.00
20909;BME280;10614;53.198;6.570;2023-03-03T03:34:08;102632.81;;;1.42;100.00
20909;BME280;10614;53.198;6.570;2023-03-03T03:36:10;102635.38;;;1.41;100.00
20909;BME280;10614;53.198;6.570;2023-03-03T03:38:12;102637.94;;;1.39;100.00
20909;BME280;10614;53.198;6.570;2023-03-03T03:40:14;102640.47;;;1.38;100.00
20909;BME280;10614;53.198;6.570;2023-03-03T03:42:16;102638.69;;;1.35;100.00
20909;BME280;10614;53.198;6.570;2023-03-03T03:44:18;102636.06;;;1.34;100.00
20909;BME280;10614;53.198;6.570;2023-03-03T03:46:19;102640.31;;;1.32;100.00
20909;BME280;10614;53.198;6.570;2023-03-03T03:48:23;102631.56;;;1.28;100.00
20909;BME280;10614;53.198;6.570;2023-03-03T03:50:25;102627.19;;;1.25;100.00
20909;BME280;10614;53.198;6.570;2023-03-03T03:52:27;102632.38;;;1.25;100.00
20909;BME280;10614;53.198;6.570;2023-03-03T03:54:28;102630.63;;;1.24;100.00
20909;BME280;10614;53.198;6.570;2023-03-03T03:56:30;102622.78;;;1.23;100.00
20909;BME280;10614;53.198;6.570;2023-03-03T03:58:32;102618.41;;;1.20;100.00
20909;BME280;10614;53.198;6.570;2023-03-03T04:00:34;102620.06;;;1.18;100.00
20909;BME280;10614;53.198;6.570;2023-03-03T04:02:36;102621.75;;;1.16;100.00
20909;BME280;10614;53.198;6.570;2023-03-03T04:04:43;102613.88;;;1.13;100.00
20909;BME280;10614;53.198;6.570;2023-03-03T04:06:45;102616.47;;;1.13;100.00
20909;BME280;10614;53.198;6.570;2023-03-03T04:08:48;102619.00;;;1.10;100.00
20909;BME280;10614;53.198;6.570;2023-03-03T04:10:50;102621.47;;;1.07;100.00
20909;BME280;10614;53.198;6.570;2023-03-03T04:12:52;102614.56;;;1.06;100.00
20909;BME280;10614;53.198;6.570;2023-03-03T04:14:53;102623.16;;;1.05;100.00
20909;BME280;10614;53.198;6.570;2023-03-03T04:16:56;102614.44;;;1.03;100.00
20909;BME280;10614;53.198;6.570;2023-03-03T04:18:58;102621.34;;;1.01;100.00
20909;BME280;10614;53.198;6.570;2023-03-03T04:21:01;102625.66;;;1.02;100.00
20909;BME280;10614;53.198;6.570;2023-03-03T04:23:03;102623.94;;;1.01;100.00
20909;BME280;10614;53.198;6.570;2023-03-03T04:25:05;102616.03;;;0.98;100.00
20909;BME280;10614;53.198;6.570;2023-03-03T04:27:07;102606.31;;;0.89;100.00
20909;BME280;10614;53.198;6.570;2023-03-03T04:29:10;102623.81;;;0.96;100.00
20909;BME280;10614;53.198;6.570;2023-03-03T04:31:12;102621.09;;;0.93;100.00
20909;BME280;10614;53.198;6.570;2023-03-03T04:33:13;102617.56;;;0.91;100.00
20909;BME280;10614;53.198;6.570;2023-03-03T04:35:15;102618.34;;;0.87;100.00
20909;BME280;10614;53.198;6.570;2023-03-03T04:37:18;102619.97;;;0.83;100.00
20909;BME280;10614;53.198;6.570;2023-03-03T04:39:20;102619.09;;;0.83;100.00
20909;BME280;10614;53.198;6.570;2023-03-03T04:41:22;102619.03;;;0.81;100.00
20909;BME280;10614;53.198;6.570;2023-03-03T04:43:24;102625.88;;;0.79;100.00
20909;BME280;10614;53.198;6.570;2023-03-03T04:45:25;102619.81;;;0.77;100.00
20909;BME280;10614;53.198;6.570;2023-03-03T04:47:27;102610.97;;;0.71;100.00
20909;BME280;10614;53.198;6.570;2023-03-03T04:49:29;102621.41;;;0.74;100.00
20909;BME280;10614;53.198;6.570;2023-03-03T04:51:31;102622.22;;;0.71;100.00
20909;BME280;10614;53.198;6.570;2023-03-03T04:53:34;102618.75;;;0.72;100.00
20909;BME280;10614;53.198;6.570;2023-03-03T04:55:36;102616.97;;;0.70;100.00
20909;BME280;10614;53.198;6.570;2023-03-03T04:57:38;102622.13;;;0.68;100.00
20909;BME280;10614;53.198;6.570;2023-03-03T04:59:39;102619.41;;;0.65;100.00
20909;BME280;10614;53.198;6.570;2023-03-03T05:01:41;102626.28;;;0.63;100.00
20909;BME280;10614;53.198;6.570;2023-03-03T05:03:43;102616.81;;;0.63;100.00
20909;BME280;10614;53.198;6.570;2023-03-03T05:05:45;102614.09;;;0.60;100.00
20909;BME280;10614;53.198;6.570;2023-03-03T05:07:47;102620.13;;;0.59;100.00
20909;BME280;10614;53.198;6.570;2023-03-03T05:09:50;102618.34;;;0.58;100.00
20909;BME280;10614;53.198;6.570;2023-03-03T05:11:51;102625.25;;;0.56;100.00
20909;BME280;10614;53.198;6.570;2023-03-03T05:13:53;102613.94;;;0.54;100.00
20909;BME280;10614;53.198;6.570;2023-03-03T05:15:56;102619.91;;;0.52;100.00
20909;BME280;10614;53.198;6.570;2023-03-03T05:17:58;102613.81;;;0.51;100.00
20909;BME280;10614;53.198;6.570;2023-03-03T05:20:00;102623.31;;;0.51;100.00
20909;BME280;10614;53.198;6.570;2023-03-03T05:22:02;102614.63;;;0.49;100.00
20909;BME280;10614;53.198;6.570;2023-03-03T05:24:04;102612.81;;;0.46;100.00
20909;BME280;10614;53.198;6.570;2023-03-03T05:26:07;102617.97;;;0.45;100.00
20909;BME280;10614;53.198;6.570;2023-03-03T05:28:09;102608.44;;;0.44;100.00
20909;BME280;10614;53.198;6.570;2023-03-03T05:30:12;102623.97;;;0.44;100.00
20909;BME280;10614;53.198;6.570;2023-03-03T05:32:13;102617.03;;;0.43;100.00
20909;BME280;10614;53.198;6.570;2023-03-03T05:34:16;102620.44;;;0.41;100.00
20909;BME280;10614;53.198;6.570;2023-03-03T05:36:17;102617.84;;;0.41;100.00
20909;BME280;10614;53.198;6.570;2023-03-03T05:38:19;102619.56;;;0.41;100.00
20909;BME280;10614;53.198;6.570;2023-03-03T05:40:21;102616.94;;;0.39;100.00
20909;BME280;10614;53.198;6.570;2023-03-03T05:42:24;102611.81;;;0.41;100.00
20909;BME280;10614;53.198;6.570;2023-03-03T05:44:26;102613.53;;;0.40;100.00
20909;BME280;10614;53.198;6.570;2023-03-03T05:46:28;102615.25;;;0.40;100.00
20909;BME280;10614;53.198;6.570;2023-03-03T05:48:30;102612.59;;;0.38;100.00
20909;BME280;10614;53.198;6.570;2023-03-03T05:50:32;102613.47;;;0.39;100.00
20909;BME280;10614;53.198;6.570;2023-03-03T05:52:34;102614.34;;;0.39;100.00
20909;BME280;10614;53.198;6.570;2023-03-03T05:54:35;102612.59;;;0.38;100.00
20909;BME280;10614;53.198;6.570;2023-03-03T05:56:37;102609.13;;;0.38;100.00
20909;BME280;10614;53.198;6.570;2023-03-03T05:58:40;102616.00;;;0.37;100.00
20909;BME280;10614;53.198;6.570;2023-03-03T06:00:42;102614.31;;;0.38;100.00
20909;BME280;10614;53.198;6.570;2023-03-03T06:02:44;102617.72;;;0.37;100.00
20909;BME280;10614;53.198;6.570;2023-03-03T06:04:46;102618.59;;;0.37;100.00
20909;BME280;10614;53.198;6.570;2023-03-03T06:06:47;102622.09;;;0.38;100.00
20909;BME280;10614;53.198;6.570;2023-03-03T06:08:49;102622.88;;;0.35;100.00
20909;BME280;10614;53.198;6.570;2023-03-03T06:10:53;102621.97;;;0.35;100.00
20909;BME280;10614;53.198;6.570;2023-03-03T06:12:54;102626.28;;;0.34;100.00
20909;BME280;10614;53.198;6.570;2023-03-03T06:14:59;102627.16;;;0.35;100.00
20909;BME280;10614;53.198;6.570;2023-03-03T06:17:01;102626.28;;;0.34;100.00
20909;BME280;10614;53.198;6.570;2023-03-03T06:19:02;102631.47;;;0.34;100.00
20909;BME280;10614;53.198;6.570;2023-03-03T06:21:04;102627.13;;;0.33;100.00
20909;BME280;10614;53.198;6.570;2023-03-03T06:23:06;102637.50;;;0.33;100.00
20909;BME280;10614;53.198;6.570;2023-03-03T06:25:08;102631.38;;;0.31;100.00
20909;BME280;10614;53.198;6.570;2023-03-03T06:27:10;102634.84;;;0.32;100.00
20909;BME280;10614;53.198;6.570;2023-03-03T06:29:12;102640.81;;;0.29;100.00
20909;BME280;10614;53.198;6.570;2023-03-03T06:31:16;102634.78;;;0.30;100.00
20909;BME280;10614;53.198;6.570;2023-03-03T06:33:17;102647.72;;;0.30;100.00
20909;BME280;10614;53.198;6.570;2023-03-03T06:35:19;102636.47;;;0.28;100.00
20909;BME280;10614;53.198;6.570;2023-03-03T06:37:21;102644.25;;;0.30;100.00
20909;BME280;10614;53.198;6.570;2023-03-03T06:39:23;102647.66;;;0.27;100.00
20909;BME280;10614;53.198;6.570;2023-03-03T06:41:25;102645.06;;;0.27;100.00
20909;BME280;10614;53.198;6.570;2023-03-03T06:43:27;102647.66;;;0.27;100.00
20909;BME280;10614;53.198;6.570;2023-03-03T06:45:29;102642.31;;;0.23;100.00
20909;BME280;10614;53.198;6.570;2023-03-03T06:47:32;102657.78;;;0.21;100.00
20909;BME280;10614;53.198;6.570;2023-03-03T06:49:33;102652.69;;;0.23;100.00
20909;BME280;10614;53.198;6.570;2023-03-03T06:51:37;102651.81;;;0.22;100.00
20909;BME280;10614;53.198;6.570;2023-03-03T06:53:39;102663.09;;;0.24;100.00
20909;BME280;10614;53.198;6.570;2023-03-03T06:55:42;102657.91;;;0.24;100.00
20909;BME280;10614;53.198;6.570;2023-03-03T06:57:44;102657.13;;;0.27;100.00
20909;BME280;10614;53.198;6.570;2023-03-03T06:59:49;102668.44;;;0.29;100.00
20909;BME280;10614;53.198;6.570;2023-03-03T07:01:52;102665.06;;;0.31;100.00
20909;BME280;10614;53.198;6.570;2023-03-03T07:03:55;102665.06;;;0.31;100.00
20909;BME280;10614;53.198;6.570;2023-03-03T07:05:57;102673.75;;;0.33;100.00
20909;BME280;10614;53.198;6.570;2023-03-03T07:08:00;102665.13;;;0.34;100.00
20909;BME280;10614;53.198;6.570;2023-03-03T07:10:11;102670.31;;;0.34;100.00
20909;BME280;10614;53.198;6.570;2023-03-03T07:12:18;102672.09;;;0.35;100.00
20909;BME280;10614;53.198;6.570;2023-03-03T07:14:21;102671.25;;;0.36;100.00
20909;BME280;10614;53.198;6.570;2023-03-03T07:16:25;102671.25;;;0.36;100.00
20909;BME280;10614;53.198;6.570;2023-03-03T07:18:36;102667.78;;;0.36;100.00
20909;BME280;10614;53.198;6.570;2023-03-03T07:20:39;102672.09;;;0.35;100.00
20909;BME280;10614;53.198;6.570;2023-03-03T07:22:41;102673.91;;;0.38;100.00
20909;BME280;10614;53.198;6.570;2023-03-03T07:24:45;102672.25;;;0.40;100.00
20909;BME280;10614;53.198;6.570;2023-03-03T07:26:47;102668.00;;;0.44;100.00
20909;BME280;10614;53.198;6.570;2023-03-03T07:28:53;102674.19;;;0.47;100.00
20909;BME280;10614;53.198;6.570;2023-03-03T07:30:56;102672.53;;;0.49;100.00
20909;BME280;10614;53.198;6.570;2023-03-03T07:32:58;102676.13;;;0.54;100.00
20909;BME280;10614;53.198;6.570;2023-03-03T07:35:00;102682.28;;;0.58;100.00
20909;BME280;10614;53.198;6.570;2023-03-03T07:37:10;102677.16;;;0.59;100.00
20909;BME280;10614;53.198;6.570;2023-03-03T07:39:23;102678.09;;;0.63;100.00
20909;BME280;10614;53.198;6.570;2023-03-03T07:41:26;102678.16;;;0.65;100.00
20909;BME280;10614;53.198;6.570;2023-03-03T07:43:30;102676.56;;;0.68;100.00
20909;BME280;10614;53.198;6.570;2023-03-03T07:45:35;102678.34;;;0.71;100.00
20909;BME280;10614;53.198;6.570;2023-03-03T07:47:38;102674.97;;;0.73;100.00
20909;BME280;10614;53.198;6.570;2023-03-03T07:49:40;102679.38;;;0.76;100.00
20909;BME280;10614;53.198;6.570;2023-03-03T07:51:42;102678.53;;;0.77;100.00
20909;BME280;10614;53.198;6.570;2023-03-03T07:53:45;102687.28;;;0.80;100.00
20909;BME280;10614;53.198;6.570;2023-03-03T07:55:47;102683.03;;;0.82;100.00
20909;BME280;10614;53.198;6.570;2023-03-03T07:57:50;102692.63;;;0.87;100.00
20909;BME280;10614;53.198;6.570;2023-03-03T07:59:56;102687.56;;;0.90;100.00
20909;BME280;10614;53.198;6.570;2023-03-03T08:02:01;102686.72;;;0.91;100.00
20909;BME280;10614;53.198;6.570;2023-03-03T08:04:14;102689.34;;;0.92;100.00
20909;BME280;10614;53.198;6.570;2023-03-03T08:06:36;102693.81;;;0.96;100.00
20909;BME280;10614;53.198;6.570;2023-03-03T08:08:40;102695.59;;;0.99;100.00
20909;BME280;10614;53.198;6.570;2023-03-03T08:10:47;102687.06;;;1.03;100.00
20909;BME280;10614;53.198;6.570;2023-03-03T08:12:49;102688.88;;;1.05;100.00
20909;BME280;10614;53.198;6.570;2023-03-03T08:14:51;102691.50;;;1.07;100.00
20909;BME280;10614;53.198;6.570;2023-03-03T08:16:55;102697.63;;;1.09;100.00
20909;BME280;10614;53.198;6.570;2023-03-03T08:19:01;102689.91;;;1.12;100.00
20909;BME280;10614;53.198;6.570;2023-03-03T08:21:06;102692.56;;;1.14;100.00
20909;BME280;10614;53.198;6.570;2023-03-03T08:23:10;102701.34;;;1.19;100.00
20909;BME280;10614;53.198;6.570;2023-03-03T08:25:12;102691.81;;;1.18;100.00
20909;BME280;10614;53.198;6.570;2023-03-03T08:27:15;102704.94;;;1.22;100.00
20909;BME280;10614;53.198;6.570;2023-03-03T08:29:17;102691.97;;;1.22;100.00
20909;BME280;10614;53.198;6.570;2023-03-03T08:31:19;102700.69;;;1.26;100.00
20909;BME280;10614;53.198;6.570;2023-03-03T08:33:21;102693.84;;;1.28;100.00
20909;BME280;10614;53.198;6.570;2023-03-03T08:35:22;102698.19;;;1.29;100.00
20909;BME280;10614;53.198;6.570;2023-03-03T08:37:24;102697.34;;;1.30;100.00
20909;BME280;10614;53.198;6.570;2023-03-03T08:39:26;102697.44;;;1.33;100.00
20909;BME280;10614;53.198;6.570;2023-03-03T08:41:28;102695.75;;;1.35;100.00
20909;BME280;10614;53.198;6.570;2023-03-03T08:43:31;102701.94;;;1.40;100.00
20909;BME280;10614;53.198;6.570;2023-03-03T08:45:34;102690.75;;;1.41;100.00
20909;BME280;10614;53.198;6.570;2023-03-03T08:47:37;102700.38;;;1.45;100.00
20909;BME280;10614;53.198;6.570;2023-03-03T08:49:39;102693.53;;;1.47;100.00
20909;BME280;10614;53.198;6.570;2023-03-03T08:51:41;102697.94;;;1.52;100.00
20909;BME280;10614;53.198;6.570;2023-03-03T08:53:43;102698.03;;;1.55;100.00
20909;BME280;10614;53.198;6.570;2023-03-03T08:55:45;102694.66;;;1.57;100.00
20909;BME280;10614;53.198;6.570;2023-03-03T08:57:48;102695.56;;;1.59;100.00
20909;BME280;10614;53.198;6.570;2023-03-03T08:59:51;102693.91;;;1.63;100.00
20909;BME280;10614;53.198;6.570;2023-03-03T09:01:53;102694.91;;;1.66;100.00
20909;BME280;10614;53.198;6.570;2023-03-03T09:03:55;102695.78;;;1.68;100.00
20909;BME280;10614;53.198;6.570;2023-03-03T09:05:57;102697.63;;;1.73;100.00
20909;BME280;10614;53.198;6.570;2023-03-03T09:07:59;102699.47;;;1.77;100.00
20909;BME280;10614;53.198;6.570;2023-03-03T09:10:00;102700.44;;;1.80;100.00
20909;BME280;10614;53.198;6.570;2023-03-03T09:12:14;102700.53;;;1.83;100.00
20909;BME280;10614;53.198;6.570;2023-03-03T09:14:17;102704.91;;;1.86;100.00
20909;BME280;10614;53.198;6.570;2023-03-03T09:16:21;102705.84;;;1.89;100.00
20909;BME280;10614;53.198;6.570;2023-03-03T09:18:29;102705.97;;;1.93;100.00
20909;BME280;10614;53.198;6.570;2023-03-03T09:20:34;102704.31;;;1.96;100.00
20909;BME280;10614;53.198;6.570;2023-03-03T09:22:37;102708.75;;;2.00;100.00
20909;BME280;10614;53.198;6.570;2023-03-03T09:24:41;102706.22;;;2.03;100.00
20909;BME280;10614;53.198;6.570;2023-03-03T09:26:44;102704.53;;;2.05;100.00
20909;BME280;10614;53.198;6.570;2023-03-03T09:28:47;102695.94;;;2.08;100.00
20909;BME280;10614;53.198;6.570;2023-03-03T09:30:50;102706.44;;;2.13;100.00
20909;BME280;10614;53.198;6.570;2023-03-03T09:32:55;102708.28;;;2.17;100.00
20909;BME280;10614;53.198;6.570;2023-03-03T09:34:57;102700.56;;;2.20;100.00
20909;BME280;10614;53.198;6.570;2023-03-03T09:37:00;102700.72;;;2.26;100.00
20909;BME280;10614;53.198;6.570;2023-03-03T09:39:13;102701.69;;;2.31;100.00
20909;BME280;10614;53.198;6.570;2023-03-03T09:41:38;102705.28;;;2.36;100.00
20909;BME280;10614;53.198;6.570;2023-03-03T09:43:59;102696.66;;;2.39;100.00
20909;BME280;10614;53.198;6.570;2023-03-03T09:46:12;102703.81;;;2.46;100.00
20909;BME280;10614;53.198;6.570;2023-03-03T09:48:35;102699.53;;;2.49;100.00
20909;BME280;10614;53.198;6.570;2023-03-03T09:50:47;102704.84;;;2.54;100.00
20909;BME280;10614;53.198;6.570;2023-03-03T09:53:07;102701.50;;;2.60;100.00
20909;BME280;10614;53.198;6.570;2023-03-03T09:55:24;102703.38;;;2.67;100.00
20909;BME280;10614;53.198;6.570;2023-03-03T09:57:43;102700.94;;;2.73;100.00
20909;BME280;10614;53.198;6.570;2023-03-03T10:00:26;102702.81;;;2.79;100.00
20909;BME280;10614;53.198;6.570;2023-03-03T10:02:40;102702.06;;;2.84;100.00
20909;BME280;10614;53.198;6.570;2023-03-03T10:04:56;102702.19;;;2.90;100.00
20909;BME280;10614;53.198;6.570;2023-03-03T10:07:11;102707.50;;;2.95;100.00
20909;BME280;10614;53.198;6.570;2023-03-03T10:11:48;102699.91;;;3.06;100.00
20909;BME280;10614;53.198;6.570;2023-03-03T10:16:40;102696.72;;;3.21;100.00
20909;BME280;10614;53.198;6.570;2023-03-03T10:18:46;102702.03;;;3.25;100.00
20909;BME280;10614;53.198;6.570;2023-03-03T10:21:03;102698.63;;;3.28;100.00
20909;BME280;10614;53.198;6.570;2023-03-03T10:23:16;102698.69;;;3.32;100.00
20909;BME280;10614;53.198;6.570;2023-03-03T10:25:28;102697.09;;;3.37;100.00
20909;BME280;10614;53.198;6.570;2023-03-03T10:27:48;102696.28;;;3.42;100.00
20909;BME280;10614;53.198;6.570;2023-03-03T10:30:01;102699.00;;;3.48;100.00
20909;BME280;10614;53.198;6.570;2023-03-03T10:32:23;102700.03;;;3.56;100.00
20909;BME280;10614;53.198;6.570;2023-03-03T10:34:48;102699.28;;;3.62;100.00
20909;BME280;10614;53.198;6.570;2023-03-03T10:37:02;102690.72;;;3.69;100.00
20909;BME280;10614;53.198;6.570;2023-03-03T10:39:19;102696.91;;;3.75;100.00
20909;BME280;10614;53.198;6.570;2023-03-03T10:41:39;102700.53;;;3.84;100.00
20909;BME280;10614;53.198;6.570;2023-03-03T10:43:56;102704.06;;;3.87;100.00
20909;BME280;10614;53.198;6.570;2023-03-03T10:46:15;102706.81;;;3.95;100.00
20909;BME280;10614;53.198;6.570;2023-03-03T10:48:33;102698.25;;;4.00;100.00
20909;BME280;10614;53.198;6.570;2023-03-03T10:50:48;102705.25;;;4.06;100.00
20909;BME280;10614;53.198;6.570;2023-03-03T10:53:00;102700.16;;;4.14;100.00
20909;BME280;10614;53.198;6.570;2023-03-03T10:55:33;102697.75;;;4.25;100.00
20909;BME280;10614;53.198;6.570;2023-03-03T10:57:40;102692.63;;;4.29;100.00